Time;durP1;ratioP1;P1;durP2;ratioP2;P2;SDS_P1;SDS_P2;PMS_P1;PMS_P2;Temp;Humidity;BMP_temperature;BMP_pressure;BME280_temperature;BME280_humidity;BME280_pressure;Samples;Min_cycle;Max_cycle;Signal;HPM_P1;HPM_P2
2022/04/15 00:01:30;;;;;;;;;;;;;;;19.80;23.85;99417.94;4475484;32;34073;-83
2022/04/15 00:03:58;;;;;;;;;;;;;;;19.44;24.20;99415.13;4483325;32;34335;-83
2022/04/15 00:06:25;;;;;;;;;;;;;;;19.88;24.06;99418.62;4483258;32;33660;-82
2022/04/15 00:08:52;;;;;;;;;;;;;;;19.80;23.77;99409.19;4453413;32;33276;-83
2022/04/15 00:11:20;;;;;;;;;;;;;;;20.01;23.41;99414.00;4475438;32;35063;-83
2022/04/15 00:13:47;;;;;;;;;;;;;;;19.93;23.54;99411.53;4483244;32;35233;-83
2022/04/15 00:16:14;;;;;;;;;;;;;;;19.98;23.61;99400.91;4483029;32;34063;-83
2022/04/15 00:18:43;;;;;;;;;;;;;;;20.00;23.49;99388.59;4483015;32;33281;-83
2022/04/15 00:21:10;;;;;;;;;;;;;;;19.96;23.56;99404.44;4482551;32;34356;-84
2022/04/15 00:23:38;;;;;;;;;;;;;;;20.05;23.35;99404.28;4482497;32;34074;-83
2022/04/15 00:26:06;;;;;;;;;;;;;;;20.00;23.83;99400.84;4482042;32;34273;-83
2022/04/15 00:28:33;;;;;;;;;;;;;;;19.90;23.93;99390.53;4476904;32;34198;-82
2022/04/15 00:31:00;;;;;;;;;;;;;;;19.91;23.95;99394.03;4468145;32;33642;-83
2022/04/15 00:33:28;;;;;;;;;;;;;;;19.93;24.26;99397.50;4468067;32;33950;-83
2022/04/15 00:35:55;;;;;;;;;;;;;;;19.95;24.12;99392.19;4481792;32;33608;-83
2022/04/15 00:38:22;;;;;;;;;;;;;;;19.58;24.04;99387.66;4478077;32;34443;-84
2022/04/15 00:40:49;;;;;;;;;;;;;;;19.52;23.54;99386.03;4483229;32;33511;-83
2022/04/15 00:43:17;;;;;;;;;;;;;;;19.73;23.75;99391.78;4467676;32;33222;-82
2022/04/15 00:45:46;;;;;;;;;;;;;;;19.79;23.54;99394.31;4482183;32;33729;-84
2022/04/15 00:48:14;;;;;;;;;;;;;;;19.78;23.54;99392.56;4481341;32;33336;-83
2022/04/15 00:50:41;;;;;;;;;;;;;;;19.74;23.69;99381.25;4482190;32;34871;-83
2022/04/15 00:53:09;;;;;;;;;;;;;;;19.77;23.91;99386.41;4482159;32;34549;-83
2022/04/15 00:55:38;;;;;;;;;;;;;;;19.76;23.85;99382.06;4482798;32;34726;-83
2022/04/15 00:58:05;;;;;;;;;;;;;;;19.65;24.11;99376.16;4468681;32;32758;-83
2022/04/15 01:00:34;;;;;;;;;;;;;;;19.58;23.84;99375.37;4469622;31;34680;-83
2022/04/15 01:03:02;;;;;;;;;;;;;;;19.61;24.21;99374.47;4468928;32;33744;-83
2022/04/15 01:05:30;;;;;;;;;;;;;;;19.66;24.01;99367.38;4468640;32;34240;-83
2022/04/15 01:07:57;;;;;;;;;;;;;;;19.68;24.30;99373.47;4482529;32;34028;-83
2022/04/15 01:10:25;;;;;;;;;;;;;;;19.70;24.26;99374.31;4467263;32;34229;-83
2022/04/15 01:12:56;;;;;;;;;;;;;;;19.66;24.13;99367.38;4482231;32;34167;-83
2022/04/15 01:15:44;;;;;;;;;;;;;;;19.75;23.63;99367.19;4470948;32;34709;-83
2022/04/15 01:18:11;;;;;;;;;;;;;;;19.68;23.64;99360.31;4467963;32;34011;-83
2022/04/15 01:20:38;;;;;;;;;;;;;;;19.66;24.03;99355.09;4467426;32;34467;-83
2022/04/15 01:23:06;;;;;;;;;;;;;;;19.62;24.06;99360.44;4465382;32;34366;-83
2022/04/15 01:25:33;;;;;;;;;;;;;;;19.58;24.30;99354.34;4466734;32;33961;-83
2022/04/15 01:28:00;;;;;;;;;;;;;;;19.47;24.54;99355.47;4467732;32;33210;-82
2022/04/15 01:30:28;;;;;;;;;;;;;;;19.35;24.73;99348.69;4481726;32;34632;-82
2022/04/15 01:32:55;;;;;;;;;;;;;;;19.37;24.94;99347.78;4482070;32;33940;-83
2022/04/15 01:35:24;;;;;;;;;;;;;;;19.37;25.15;99349.53;4483211;32;33334;-83
2022/04/15 01:37:52;;;;;;;;;;;;;;;19.38;24.93;99341.62;4467596;32;33065;-83
2022/04/15 01:40:19;;;;;;;;;;;;;;;19.43;24.74;99345.03;4469369;32;33947;-81
2022/04/15 01:42:46;;;;;;;;;;;;;;;19.43;24.85;99346.78;4483734;32;35391;-83
2022/04/15 01:45:14;;;;;;;;;;;;;;;19.45;24.24;99342.38;4470013;32;34293;-83
2022/04/15 01:47:41;;;;;;;;;;;;;;;19.40;24.08;99352.13;4484389;32;32307;-83
2022/04/15 01:50:10;;;;;;;;;;;;;;;19.44;23.97;99357.28;4467195;32;34675;-83
2022/04/15 01:52:38;;;;;;;;;;;;;;;19.34;24.22;99354.84;4482275;32;34503;-83
2022/04/15 01:55:05;;;;;;;;;;;;;;;19.15;24.64;99349.09;4469767;32;34780;-83
2022/04/15 01:57:32;;;;;;;;;;;;;;;19.00;24.77;99349.38;4456967;32;32559;-83
2022/04/15 02:00:00;;;;;;;;;;;;;;;19.10;24.74;99348.31;4484311;32;34159;-83
2022/04/15 02:02:27;;;;;;;;;;;;;;;19.09;25.09;99350.09;4469503;32;34134;-82
2022/04/15 02:04:55;;;;;;;;;;;;;;;19.19;24.34;99341.12;4478757;32;35043;-83
2022/04/15 02:07:22;;;;;;;;;;;;;;;19.18;24.71;99342.00;4484451;32;33280;-82
2022/04/15 02:09:49;;;;;;;;;;;;;;;19.20;25.07;99334.09;4484083;32;34083;-82
2022/04/15 02:12:17;;;;;;;;;;;;;;;19.18;25.26;99335.91;4483592;32;34212;-82
2022/04/15 02:14:46;;;;;;;;;;;;;;;18.78;25.56;99341.88;4484070;32;34280;-82
2022/04/15 02:17:13;;;;;;;;;;;;;;;18.79;24.86;99333.13;4483203;32;34263;-82
2022/04/15 02:19:40;;;;;;;;;;;;;;;18.96;24.50;99338.91;4483764;32;35135;-84
2022/04/15 02:22:07;;;;;;;;;;;;;;;18.82;24.92;99338.31;4483019;32;34314;-82
2022/04/15 02:24:35;;;;;;;;;;;;;;;18.60;25.37;99335.19;4484114;32;34082;-83
2022/04/15 02:27:02;;;;;;;;;;;;;;;18.84;25.30;99343.53;4483567;32;33325;-83
2022/04/15 02:29:29;;;;;;;;;;;;;;;18.94;25.37;99340.72;4484069;32;34129;-83
2022/04/15 02:31:56;;;;;;;;;;;;;;;18.78;26.02;99339.25;4469267;32;34543;-81
2022/04/15 02:34:24;;;;;;;;;;;;;;;18.73;25.52;99329.72;4484131;32;34992;-82
2022/04/15 02:36:51;;;;;;;;;;;;;;;18.85;24.93;99327.75;4483721;32;34038;-83
2022/04/15 02:39:18;;;;;;;;;;;;;;;18.93;25.17;99328.47;4469237;32;32939;-82
2022/04/15 02:41:46;;;;;;;;;;;;;;;18.31;25.73;99327.78;4474423;32;34099;-83
2022/04/15 02:44:13;;;;;;;;;;;;;;;18.57;25.85;99324.72;4469912;32;34101;-82
2022/04/15 02:46:40;;;;;;;;;;;;;;;18.76;25.63;99321.81;4483619;32;33398;-81
2022/04/15 02:49:08;;;;;;;;;;;;;;;18.80;25.99;99323.47;4469688;32;34314;-83
2022/04/15 02:51:36;;;;;;;;;;;;;;;18.83;25.53;99320.81;4468863;32;34456;-83
2022/04/15 02:54:03;;;;;;;;;;;;;;;18.84;25.72;99325.16;4483782;32;34741;-82
2022/04/15 02:56:30;;;;;;;;;;;;;;;18.84;25.65;99320.75;4483465;32;33441;-82
2022/04/15 02:58:57;;;;;;;;;;;;;;;18.79;26.08;99324.34;4483794;32;34239;-84
2022/04/15 03:01:24;;;;;;;;;;;;;;;18.84;25.88;99320.75;4481581;32;35304;-84
2022/04/15 03:03:52;;;;;;;;;;;;;;;18.67;26.29;99323.66;4483773;32;34110;-83
2022/04/15 03:06:19;;;;;;;;;;;;;;;18.80;26.10;99331.37;4483562;32;33397;-84
2022/04/15 03:08:46;;;;;;;;;;;;;;;18.81;26.21;99328.69;4469560;32;34952;-82
2022/04/15 03:11:14;;;;;;;;;;;;;;;18.61;26.25;99325.53;4469005;32;33993;-82
2022/04/15 03:13:41;;;;;;;;;;;;;;;18.69;25.67;99323.63;4483928;32;34770;-83
2022/04/15 03:16:08;;;;;;;;;;;;;;;18.66;25.50;99321.91;4483131;32;34030;-83
2022/04/15 03:18:36;;;;;;;;;;;;;;;18.69;25.49;99323.63;4483588;32;33903;-83
2022/04/15 03:21:04;;;;;;;;;;;;;;;18.74;25.72;99324.44;4483398;32;34493;-83
2022/04/15 03:23:31;;;;;;;;;;;;;;;18.79;25.68;99333.13;4483725;32;34956;-82
2022/04/15 03:25:58;;;;;;;;;;;;;;;18.74;25.04;99329.69;4483355;32;33226;-81
2022/04/15 03:28:25;;;;;;;;;;;;;;;18.66;25.18;99332.44;4483732;32;34160;-83
2022/04/15 03:30:52;;;;;;;;;;;;;;;18.68;25.51;99332.41;4483093;32;34572;-82
2022/04/15 03:33:20;;;;;;;;;;;;;;;18.70;25.72;99331.50;4483592;32;33761;-83
2022/04/15 03:35:47;;;;;;;;;;;;;;;18.64;25.88;99325.50;4469601;32;33171;-83
2022/04/15 03:38:14;;;;;;;;;;;;;;;18.63;25.82;99329.84;4483681;32;33953;-83
2022/04/15 03:40:42;;;;;;;;;;;;;;;18.57;25.69;99323.84;4483297;32;35385;-83
2022/04/15 03:43:09;;;;;;;;;;;;;;;18.45;25.86;99317.91;4482675;32;33740;-83
2022/04/15 03:45:36;;;;;;;;;;;;;;;18.58;25.86;99318.56;4483716;32;32880;-83
2022/04/15 03:48:04;;;;;;;;;;;;;;;18.61;25.74;99315.03;4469311;32;35375;-84
2022/04/15 03:50:33;;;;;;;;;;;;;;;18.65;25.95;99319.34;4469486;32;34985;-83
2022/04/15 03:53:00;;;;;;;;;;;;;;;18.70;25.84;99320.09;4482555;32;34843;-83
2022/04/15 03:55:28;;;;;;;;;;;;;;;18.65;25.92;99300.94;4482924;32;33046;-83
2022/04/15 03:57:55;;;;;;;;;;;;;;;18.62;26.34;99308.88;4482005;32;34336;-83
2022/04/15 04:00:23;;;;;;;;;;;;;;;18.71;25.96;99311.34;4483287;32;34570;-82
2022/04/15 04:02:53;;;;;;;;;;;;;;;18.55;26.33;99310.72;4468380;32;34929;-83
2022/04/15 04:05:21;;;;;;;;;;;;;;;18.41;26.13;99305.75;4451576;32;32768;-82
2022/04/15 04:07:49;;;;;;;;;;;;;;;18.71;25.95;99300.84;4467776;32;34289;-83
2022/04/15 04:10:16;;;;;;;;;;;;;;;18.76;25.81;99299.03;4453554;32;34077;-83
2022/04/15 04:12:44;;;;;;;;;;;;;;;18.71;25.83;99300.84;4464013;32;34934;-82
2022/04/15 04:15:12;;;;;;;;;;;;;;;18.28;26.85;99304.19;4467944;32;34066;-82
2022/04/15 04:17:40;;;;;;;;;;;;;;;18.55;26.28;99302.84;4466365;32;34516;-83
2022/04/15 04:20:09;;;;;;;;;;;;;;;18.61;26.35;99304.53;4469027;32;34037;-82
2022/04/15 04:22:36;;;;;;;;;;;;;;;17.71;27.43;99309.41;4479598;32;34244;-83
2022/04/15 04:25:04;;;;;;;;;;;;;;;16.86;29.15;99306.94;4482768;32;33292;-82
2022/04/15 04:27:32;;;;;;;;;;;;;;;18.15;27.01;99302.69;4465645;32;33918;-83
2022/04/15 04:29:59;;;;;;;;;;;;;;;17.74;27.94;99314.59;4473309;32;34140;-83
2022/04/15 04:32:26;;;;;;;;;;;;;;;18.09;27.39;99310.62;4482661;32;33680;-83
2022/04/15 04:34:53;;;;;;;;;;;;;;;18.60;27.28;99308.03;4483273;32;33510;-83
2022/04/15 04:37:21;;;;;;;;;;;;;;;19.05;26.90;99308.09;4482695;32;34363;-83
2022/04/15 04:39:48;;;;;;;;;;;;;;;19.25;26.41;99311.22;4482891;32;34210;-83
2022/04/15 04:42:15;;;;;;;;;;;;;;;18.75;27.79;99318.28;4468684;32;34109;-83
2022/04/15 04:44:42;;;;;;;;;;;;;;;19.37;27.17;99324.13;4468513;32;33067;-83
2022/04/15 04:47:10;;;;;;;;;;;;;;;19.61;26.73;99320.09;4482247;32;34166;-83
2022/04/15 04:49:37;;;;;;;;;;;;;;;19.78;26.89;99326.81;4468708;32;34305;-83
2022/04/15 04:52:04;;;;;;;;;;;;;;;19.35;26.24;99327.66;4468072;32;32361;-83
2022/04/15 04:54:32;;;;;;;;;;;;;;;19.57;26.08;99328.09;4482818;32;34183;-83
2022/04/15 04:57:00;;;;;;;;;;;;;;;19.71;25.65;99333.97;4482317;32;34999;-83
2022/04/15 04:59:29;;;;;;;;;;;;;;;20.18;24.92;99322.34;4482627;32;34100;-83
2022/04/15 05:01:56;;;;;;;;;;;;;;;20.56;24.66;99324.97;4468074;32;34200;-84
2022/04/15 05:04:24;;;;;;;;;;;;;;;20.54;24.76;99327.66;4481878;32;34131;-83
2022/04/15 05:06:52;;;;;;;;;;;;;;;20.24;25.74;99323.97;4482281;32;33956;-83
2022/04/15 05:09:20;;;;;;;;;;;;;;;20.61;26.04;99323.97;4483410;32;34754;-83
2022/04/15 05:11:48;;;;;;;;;;;;;;;21.13;24.96;99326.97;4469801;32;34043;-83
2022/04/15 05:14:17;;;;;;;;;;;;;;;20.93;24.95;99322.25;4484272;32;33131;-83
2022/04/15 05:16:45;;;;;;;;;;;;;;;20.99;25.54;99329.13;4484472;32;35058;-83
2022/04/15 05:19:12;;;;;;;;;;;;;;;20.86;25.05;99339.97;4483969;32;33804;-84
2022/04/15 05:21:39;;;;;;;;;;;;;;;21.18;24.14;99334.78;4484331;32;33907;-83
2022/04/15 05:24:07;;;;;;;;;;;;;;;21.13;23.58;99327.81;4470066;32;31917;-83
2022/04/15 05:26:35;;;;;;;;;;;;;;;21.38;24.00;99333.31;4473323;32;34066;-83
2022/04/15 05:29:02;;;;;;;;;;;;;;;21.07;26.90;99340.34;4483459;32;34744;-83
2022/04/15 05:31:29;;;;;;;;;;;;;;;20.78;26.82;99344.59;4484148;32;34981;-83
2022/04/15 05:33:57;;;;;;;;;;;;;;;21.22;25.71;99337.28;4484373;32;34140;-83
2022/04/15 05:36:24;;;;;;;;;;;;;;;21.40;25.22;99340.31;4484298;32;34029;-83
2022/04/15 05:38:51;;;;;;;;;;;;;;;20.60;27.20;99347.69;4484362;32;34295;-83
2022/04/15 05:41:18;;;;;;;;;;;;;;;20.11;28.46;99351.47;4483883;32;35006;-83
2022/04/15 05:43:46;;;;;;;;;;;;;;;19.80;26.99;99348.66;4484021;32;33605;-83
2022/04/15 05:46:15;;;;;;;;;;;;;;;21.01;24.39;99329.94;4484098;32;35044;-83
2022/04/15 05:48:42;;;;;;;;;;;;;;;21.14;24.79;99334.00;4483191;32;34560;-83
2022/04/15 05:51:09;;;;;;;;;;;;;;;21.25;24.74;99334.56;4483905;32;34147;-83
2022/04/15 05:53:36;;;;;;;;;;;;;;;21.49;24.53;99330.37;4483344;32;33005;-83
2022/04/15 05:56:04;;;;;;;;;;;;;;;19.99;28.75;99339.47;4484492;32;34796;-83
2022/04/15 05:58:31;;;;;;;;;;;;;;;21.06;26.95;99334.19;4483286;32;35183;-84
2022/04/15 06:00:58;;;;;;;;;;;;;;;21.34;26.28;99328.19;4483752;31;34213;-83
2022/04/15 06:03:31;;;;;;;;;;;;;;;21.03;26.37;99330.78;4483888;32;33575;-81
2022/04/15 06:05:59;;;;;;;;;;;;;;;20.07;27.51;99337.50;4484570;32;34999;-82
2022/04/15 06:08:26;;;;;;;;;;;;;;;21.54;24.79;99335.50;4483313;32;34334;-82
2022/04/15 06:10:54;;;;;;;;;;;;;;;21.16;24.31;99328.66;4469770;32;33248;-82
2022/04/15 06:13:22;;;;;;;;;;;;;;;20.05;28.24;99351.63;4483196;32;34016;-82
2022/04/15 06:15:51;;;;;;;;;;;;;;;21.25;24.25;99338.94;4470025;32;34188;-82
2022/04/15 06:18:22;;;;;;;;;;;;;;;19.98;27.79;99348.25;4483711;32;35035;-82
2022/04/15 06:20:50;;;;;;;;;;;;;;;19.88;28.16;99358.13;4483570;32;34097;-82
2022/04/15 06:23:17;;;;;;;;;;;;;;;20.04;27.45;99356.03;4483631;32;33241;-82
2022/04/15 06:25:45;;;;;;;;;;;;;;;19.09;28.47;99349.19;4484178;32;34329;-82
2022/04/15 06:28:12;;;;;;;;;;;;;;;19.66;27.62;99354.22;4483755;32;34137;-82
2022/04/15 06:30:39;;;;;;;;;;;;;;;20.20;26.62;99353.06;4483970;32;34231;-83
2022/04/15 06:33:08;;;;;;;;;;;;;;;20.36;26.33;99354.41;4483159;32;33546;-82
2022/04/15 06:35:36;;;;;;;;;;;;;;;20.06;26.37;99356.84;4483408;32;35173;-82
2022/04/15 06:38:04;;;;;;;;;;;;;;;20.06;27.45;99356.00;4483454;32;34210;-82
2022/04/15 06:40:32;;;;;;;;;;;;;;;19.94;28.24;99351.88;4483014;32;34082;-82
2022/04/15 06:42:59;;;;;;;;;;;;;;;19.63;28.27;99355.16;4483074;32;33500;-83
2022/04/15 06:45:27;;;;;;;;;;;;;;;20.04;27.88;99345.50;4483948;32;34379;-82
2022/04/15 06:47:54;;;;;;;;;;;;;;;20.46;27.01;99349.78;4483442;32;34483;-82
2022/04/15 06:50:21;;;;;;;;;;;;;;;21.17;25.11;99328.59;4483826;32;34856;-83
2022/04/15 06:52:49;;;;;;;;;;;;;;;21.48;25.63;99336.56;4482964;32;33679;-83
2022/04/15 06:55:17;;;;;;;;;;;;;;;20.09;27.32;99332.22;4483707;32;34167;-83
2022/04/15 06:57:44;;;;;;;;;;;;;;;21.92;22.22;99315.87;4483868;32;34522;-83
2022/04/15 07:00:13;;;;;;;;;;;;;;;21.84;23.28;99326.69;4483781;32;32650;-82
2022/04/15 07:02:41;;;;;;;;;;;;;;;22.01;21.93;99328.81;4483790;32;34068;-82
2022/04/15 07:05:09;;;;;;;;;;;;;;;21.99;20.68;99330.63;4483202;32;34285;-83
2022/04/15 07:07:37;;;;;;;;;;;;;;;22.50;20.05;99322.00;4483382;32;34189;-82
2022/04/15 07:10:05;;;;;;;;;;;;;;;21.98;19.76;99323.63;4469483;32;33581;-82
2022/04/15 07:12:32;;;;;;;;;;;;;;;22.11;23.33;99332.00;4483180;32;33316;-82
2022/04/15 07:15:00;;;;;;;;;;;;;;;22.79;23.35;99336.84;4483034;32;34178;-83
2022/04/15 07:17:27;;;;;;;;;;;;;;;21.52;24.77;99340.00;4480618;32;34314;-81
2022/04/15 07:19:55;;;;;;;;;;;;;;;21.87;24.49;99347.72;4482077;32;34232;-81
2022/04/15 07:22:22;;;;;;;;;;;;;;;22.80;21.87;99340.34;4478380;32;34265;-82
2022/04/15 07:24:49;;;;;;;;;;;;;;;23.18;20.58;99341.66;4483129;32;34968;-82
2022/04/15 07:27:17;;;;;;;;;;;;;;;23.01;19.95;99344.06;4478940;31;34070;-82
2022/04/15 07:29:50;;;;;;;;;;;;;;;22.78;20.25;99336.91;4463937;32;33979;-83
2022/04/15 07:32:21;;;;;;;;;;;;;;;22.46;19.93;99337.97;4482664;32;32833;-82
2022/04/15 07:34:49;;;;;;;;;;;;;;;22.80;21.47;99345.63;4483237;32;34632;-83
2022/04/15 07:37:17;;;;;;;;;;;;;;;23.41;19.68;99346.16;4468319;32;34381;-83
2022/04/15 07:39:44;;;;;;;;;;;;;;;23.34;20.40;99349.06;4483482;32;34826;-82
2022/04/15 07:42:12;;;;;;;;;;;;;;;23.53;20.01;99350.97;4466419;32;33486;-82
2022/04/15 07:44:39;;;;;;;;;;;;;;;23.68;21.87;99352.22;4478206;32;33803;-82
2022/04/15 07:47:08;;;;;;;;;;;;;;;24.13;20.62;99354.03;4469121;32;35189;-82
2022/04/15 07:49:36;;;;;;;;;;;;;;;24.22;19.85;99360.72;4469548;32;34758;-82
2022/04/15 07:52:04;;;;;;;;;;;;;;;24.58;18.78;99349.56;4482888;32;33243;-82
2022/04/15 07:54:32;;;;;;;;;;;;;;;23.39;20.96;99365.62;4483376;32;34238;-83
2022/04/15 07:57:00;;;;;;;;;;;;;;;24.33;20.06;99368.25;4482810;32;34400;-83
2022/04/15 07:59:28;;;;;;;;;;;;;;;23.68;19.93;99372.53;4469159;32;34116;-82
2022/04/15 08:01:55;;;;;;;;;;;;;;;23.77;21.21;99378.34;4468414;32;33516;-83
2022/04/15 08:04:22;;;;;;;;;;;;;;;22.96;21.85;99389.19;4477391;32;33863;-81
2022/04/15 08:06:50;;;;;;;;;;;;;;;22.70;21.91;99386.50;4482142;32;34804;-83
2022/04/15 08:09:19;;;;;;;;;;;;;;;22.90;21.27;99383.19;4483085;32;33988;-84
2022/04/15 08:11:46;;;;;;;;;;;;;;;23.01;21.53;99383.72;4479340;32;33412;-81
2022/04/15 08:14:13;;;;;;;;;;;;;;;22.07;20.21;99383.19;4479805;32;34109;-82
2022/04/15 08:16:41;;;;;;;;;;;;;;;22.12;19.78;99381.25;4482945;32;34501;-81
2022/04/15 08:19:08;;;;;;;;;;;;;;;22.17;20.36;99376.75;4482951;32;34068;-81
2022/04/15 08:21:35;;;;;;;;;;;;;;;22.14;20.82;99376.84;4482441;32;33373;-81
2022/04/15 08:24:02;;;;;;;;;;;;;;;21.97;20.99;99379.09;4482658;32;35437;-80
2022/04/15 08:26:30;;;;;;;;;;;;;;;22.19;21.39;99369.63;4483174;32;34994;-80
2022/04/15 08:28:57;;;;;;;;;;;;;;;23.01;19.95;99365.22;4482094;32;34813;-82
2022/04/15 08:31:24;;;;;;;;;;;;;;;22.80;21.17;99372.06;4482528;32;32446;-81
2022/04/15 08:33:52;;;;;;;;;;;;;;;23.52;19.94;99367.78;4482716;32;34367;-83
2022/04/15 08:36:19;;;;;;;;;;;;;;;22.61;21.56;99379.72;4468482;32;34385;-83
2022/04/15 08:38:46;;;;;;;;;;;;;;;22.43;20.73;99375.94;4482914;32;34945;-83
2022/04/15 08:41:14;;;;;;;;;;;;;;;21.92;21.44;99376.59;4483103;32;34240;-81
2022/04/15 08:43:42;;;;;;;;;;;;;;;21.92;21.72;99376.59;4468145;32;35060;-80
2022/04/15 08:46:09;;;;;;;;;;;;;;;21.04;22.90;99372.03;4483312;32;34413;-80
2022/04/15 08:48:37;;;;;;;;;;;;;;;22.32;21.39;99365.72;4468413;32;34160;-82
2022/04/15 08:51:04;;;;;;;;;;;;;;;21.86;21.73;99366.25;4468181;32;33137;-80
2022/04/15 08:53:37;;;;;;;;;;;;;;;21.57;22.07;99370.59;4482396;32;33512;-81
2022/04/15 08:56:05;;;;;;;;;;;;;;;21.08;23.12;99368.41;4482322;32;33981;-82
2022/04/15 08:58:32;;;;;;;;;;;;;;;21.93;21.11;99362.47;4474579;32;34122;-81
2022/04/15 09:00:59;;;;;;;;;;;;;;;22.26;21.15;99365.88;4477841;32;31990;-82
2022/04/15 09:03:28;;;;;;;;;;;;;;;22.71;20.35;99369.72;4477331;31;34344;-81
2022/04/15 09:05:56;;;;;;;;;;;;;;;22.61;22.05;99370.94;4476717;32;34246;-81
2022/04/15 09:08:25;;;;;;;;;;;;;;;22.58;21.11;99372.78;4474709;32;33353;-81
2022/04/15 09:10:56;;;;;;;;;;;;;;;22.96;20.71;99362.75;4481280;32;33501;-85
2022/04/15 09:13:28;;;;;;;;;;;;;;;22.02;22.55;99361.34;4481152;32;34255;-81
2022/04/15 09:15:56;;;;;;;;;;;;;;;22.76;21.07;99355.44;4482441;32;34493;-80
2022/04/15 09:18:30;;;;;;;;;;;;;;;22.39;21.84;99352.28;4468132;32;32290;-81
2022/04/15 09:21:17;;;;;;;;;;;;;;;21.62;23.12;99357.25;4482545;32;33190;-80
2022/04/15 09:23:46;;;;;;;;;;;;;;;21.99;23.09;99350.88;4482333;32;33883;-81
2022/04/15 09:26:14;;;;;;;;;;;;;;;23.06;21.32;99345.63;4482319;32;35077;-82
2022/04/15 09:28:41;;;;;;;;;;;;;;;22.57;22.16;99354.31;4481965;32;34181;-81
2022/04/15 09:31:13;;;;;;;;;;;;;;;23.40;20.10;99354.97;4479242;32;34220;-81
2022/04/15 09:33:57;;;;;;;;;;;;;;;23.01;20.43;99349.34;4466488;32;34787;-80
2022/04/15 09:36:24;;;;;;;;;;;;;;;23.11;20.81;99350.75;4466628;32;34277;-84
2022/04/15 09:38:55;;;;;;;;;;;;;;;22.34;21.91;99358.59;4472331;31;35214;-82
2022/04/15 09:41:23;;;;;;;;;;;;;;;23.05;20.82;99357.12;4458652;32;34146;-80
2022/04/15 09:43:51;;;;;;;;;;;;;;;23.19;21.38;99353.13;4478582;32;35168;-80
2022/04/15 09:46:18;;;;;;;;;;;;;;;22.79;22.12;99350.06;4466149;32;35338;-81
2022/04/15 09:49:05;;;;;;;;;;;;;;;23.57;21.12;99349.09;4470665;32;34080;-79
2022/04/15 09:51:34;;;;;;;;;;;;;;;22.03;22.78;99353.37;4455538;32;33551;-80
2022/04/15 09:54:03;;;;;;;;;;;;;;;22.93;21.56;99344.34;4474768;32;34870;-78
2022/04/15 09:56:31;;;;;;;;;;;;;;;23.31;20.67;99344.75;4471494;32;34240;-79
2022/04/15 09:59:01;;;;;;;;;;;;;;;23.39;21.57;99344.47;4469046;32;34160;-79
2022/04/15 10:01:28;;;;;;;;;;;;;;;21.67;22.54;99339.53;4454114;32;33277;-83
2022/04/15 10:03:56;;;;;;;;;;;;;;;22.25;23.31;99337.75;4461283;32;33893;-80
2022/04/15 10:06:23;;;;;;;;;;;;;;;22.45;21.19;99329.19;4458391;32;34180;-79
2022/04/15 10:09:04;;;;;;;;;;;;;;;22.91;20.17;99317.06;4465236;32;34485;-79
2022/04/15 10:11:35;;;;;;;;;;;;;;;23.40;20.30;99325.88;4454415;32;32648;-78
2022/04/15 10:14:03;;;;;;;;;;;;;;;23.94;19.10;99323.84;4464865;32;34118;-80
2022/04/15 10:16:32;;;;;;;;;;;;;;;22.72;22.12;99324.75;4456085;32;33468;-81
2022/04/15 10:19:00;;;;;;;;;;;;;;;22.31;21.29;99327.00;4439055;32;34404;-81
2022/04/15 10:21:38;;;;;;;;;;;;;;;22.70;21.14;99344.22;4454670;32;34215;-83
2022/04/15 10:24:07;;;;;;;;;;;;;;;23.73;19.38;99329.06;4470700;32;34179;-80
2022/04/15 10:26:35;;;;;;;;;;;;;;;23.90;19.16;99333.72;4462277;32;34047;-81
2022/04/15 10:29:03;;;;;;;;;;;;;;;22.94;21.41;99338.13;4453465;32;33272;-80
2022/04/15 10:31:37;;;;;;;;;;;;;;;22.67;21.25;99342.53;4428439;32;34203;-79
2022/04/15 10:34:22;;;;;;;;;;;;;;;22.80;19.68;99345.63;4473452;32;34669;-81
2022/04/15 10:36:51;;;;;;;;;;;;;;;23.02;19.84;99351.06;4477088;32;34619;-80
2022/04/15 10:39:25;;;;;;;;;;;;;;;23.72;19.69;99347.69;4468139;32;34856;-79
2022/04/15 10:41:55;;;;;;;;;;;;;;;23.85;18.98;99348.91;4477934;32;33173;-79
2022/04/15 10:44:30;;;;;;;;;;;;;;;24.40;18.38;99359.16;4480429;32;34967;-81
2022/04/15 10:46:58;;;;;;;;;;;;;;;24.34;20.63;99362.88;4469372;32;34146;-82
2022/04/15 10:49:27;;;;;;;;;;;;;;;23.16;21.60;99356.75;4466431;32;33127;-79
2022/04/15 10:51:58;;;;;;;;;;;;;;;23.95;20.67;99352.94;4483892;32;34152;-79
2022/04/15 10:54:30;;;;;;;;;;;;;;;23.68;21.43;99368.09;4483742;32;33878;-80
2022/04/15 10:57:02;;;;;;;;;;;;;;;23.62;21.09;99355.06;4469899;32;34099;-79
2022/04/15 11:02:19;;;;;;;;;;;;;;;24.69;20.62;99350.84;4483394;32;32739;-80
2022/04/15 11:04:52;;;;;;;;;;;;;;;24.09;20.19;99348.88;4483799;32;33554;-80
2022/04/15 11:07:26;;;;;;;;;;;;;;;25.12;19.60;99338.44;4484172;32;34076;-80
2022/04/15 11:09:54;;;;;;;;;;;;;;;24.58;20.98;99346.91;4483036;32;34140;-78
2022/04/15 11:12:28;;;;;;;;;;;;;;;24.87;20.11;99345.69;4469603;32;33334;-82
2022/04/15 11:14:56;;;;;;;;;;;;;;;23.59;21.91;99346.37;4469087;32;34688;-79
2022/04/15 11:17:39;;;;;;;;;;;;;;;23.88;21.14;99340.88;4483509;32;34527;-79
2022/04/15 11:20:09;;;;;;;;;;;;;;;23.44;21.82;99345.16;4483908;32;35031;-80
2022/04/15 11:22:40;;;;;;;;;;;;;;;24.00;21.13;99356.28;4482727;32;33330;-83
2022/04/15 11:25:08;;;;;;;;;;;;;;;23.86;21.80;99355.06;4469323;32;34221;-77
2022/04/15 11:27:40;;;;;;;;;;;;;;;23.92;22.24;99357.50;4469397;32;33902;-80
2022/04/15 11:30:10;;;;;;;;;;;;;;;23.48;23.19;99365.28;4482952;32;34558;-83
2022/04/15 11:32:46;;;;;;;;;;;;;;;22.90;23.82;99356.75;4483567;32;33368;-82
2022/04/15 11:35:30;;;;;;;;;;;;;;;23.28;23.72;99348.34;4482688;32;34393;-81
2022/04/15 11:37:59;;;;;;;;;;;;;;;22.39;23.45;99370.78;4480062;32;35213;-80
2022/04/15 11:40:28;;;;;;;;;;;;;;;23.00;22.94;99366.13;4469184;32;34124;-82
2022/04/15 11:42:56;;;;;;;;;;;;;;;22.75;22.96;99372.22;4468800;32;33060;-80
2022/04/15 11:45:30;;;;;;;;;;;;;;;21.92;24.48;99375.75;4482789;32;34645;-78
2022/04/15 11:48:17;;;;;;;;;;;;;;;21.59;24.20;99375.81;4482795;32;34101;-82
2022/04/15 11:50:45;;;;;;;;;;;;;;;22.16;23.38;99379.44;4477803;32;33687;-79
2022/04/15 11:53:13;;;;;;;;;;;;;;;23.12;23.37;99378.94;4466285;32;34094;-77
2022/04/15 11:55:47;;;;;;;;;;;;;;;23.35;22.51;99379.91;4467377;32;33978;-80
2022/04/15 11:58:14;;;;;;;;;;;;;;;22.42;23.55;99378.59;4479300;32;35794;-81
2022/04/15 12:00:42;;;;;;;;;;;;;;;22.53;24.18;99389.69;4457597;32;33671;-78
2022/04/15 12:03:11;;;;;;;;;;;;;;;21.21;26.31;99404.06;4474578;32;33821;-79
2022/04/15 12:05:38;;;;;;;;;;;;;;;22.24;25.58;99404.72;4478511;32;33737;-80
2022/04/15 12:08:05;;;;;;;;;;;;;;;22.26;24.82;99409.94;4468055;32;34273;-82
2022/04/15 12:10:33;;;;;;;;;;;;;;;21.20;26.41;99412.03;4465231;32;34936;-82
2022/04/15 12:13:00;;;;;;;;;;;;;;;21.78;26.72;99406.06;4470708;32;34388;-81
2022/04/15 12:15:30;;;;;;;;;;;;;;;22.50;25.47;99406.53;4483230;32;34103;-81
2022/04/15 12:17:58;;;;;;;;;;;;;;;22.01;27.31;99401.84;4468189;32;34508;-81
2022/04/15 12:20:25;;;;;;;;;;;;;;;21.67;29.68;99408.13;4475718;32;33902;-81
2022/04/15 12:22:52;;;;;;;;;;;;;;;22.32;28.84;99397.41;4482006;32;33177;-83
2022/04/15 12:25:26;;;;;;;;;;;;;;;21.35;32.87;99386.16;4474377;32;34357;-80
2022/04/15 12:27:55;;;;;;;;;;;;;;;22.47;33.47;99379.34;4482632;32;35229;-81
2022/04/15 12:30:36;;;;;;;;;;;;;;;21.06;37.11;99393.94;4481074;32;34064;-82
2022/04/15 12:33:10;;;;;;;;;;;;;;;19.67;38.96;99396.28;4482424;32;32638;-85
2022/04/15 12:35:38;;;;;;;;;;;;;;;20.32;39.30;99411.53;4482863;32;34009;-81
2022/04/15 12:38:07;;;;;;;;;;;;;;;21.37;38.12;99383.50;4482730;32;33685;-81
2022/04/15 12:40:34;;;;;;;;;;;;;;;21.55;38.19;99390.00;4481704;32;34259;-84
2022/04/15 12:43:09;;;;;;;;;;;;;;;21.41;39.77;99400.97;4482758;32;33092;-83
2022/04/15 12:45:46;;;;;;;;;;;;;;;20.51;41.37;99417.28;4475048;32;34042;-82
2022/04/15 12:48:13;;;;;;;;;;;;;;;21.04;40.10;99412.44;4482771;32;34112;-83
2022/04/15 12:50:44;;;;;;;;;;;;;;;19.03;44.51;99422.91;4482619;32;32832;-84
2022/04/15 12:53:15;;;;;;;;;;;;;;;19.81;43.19;99424.06;4468739;32;34279;-81
2022/04/15 12:55:42;;;;;;;;;;;;;;;20.19;43.68;99415.34;4480877;32;35008;-84
2022/04/15 12:58:28;;;;;;;;;;;;;;;20.55;42.48;99400.50;4482714;32;35143;-81